createdAt,value
2018-05-18T00:00:07.517Z,1022.33
2018-05-18T00:01:07.472Z,1022.3
2018-05-18T00:02:07.495Z,1022.33
2018-05-18T00:03:07.528Z,1022.3
2018-05-18T00:04:07.521Z,1022.33
2018-05-18T00:05:07.509Z,1022.32
2018-05-18T00:06:07.610Z,1022.35
2018-05-18T00:07:07.542Z,1022.34
2018-05-18T00:08:07.526Z,1022.35
2018-05-18T00:09:07.617Z,1022.33
2018-05-18T00:10:07.517Z,1022.36
2018-05-18T00:11:07.493Z,1022.38
2018-05-18T00:12:07.581Z,1022.3
2018-05-18T00:13:07.509Z,1022.28
2018-05-18T00:14:07.511Z,1022.3
2018-05-18T00:15:07.485Z,1022.3
2018-05-18T00:16:07.488Z,1022.26
2018-05-18T00:17:07.535Z,1022.31
2018-05-18T00:18:07.481Z,1022.32
2018-05-18T00:19:07.495Z,1022.35
2018-05-18T00:20:07.507Z,1022.35
2018-05-18T00:21:07.512Z,1022.29
2018-05-18T00:22:07.512Z,1022.34
2018-05-18T00:23:07.522Z,1022.33
2018-05-18T00:24:07.478Z,1022.31
2018-05-18T00:25:07.500Z,1022.28
2018-05-18T00:26:07.493Z,1022.31
2018-05-18T00:27:07.496Z,1022.27
2018-05-18T00:28:07.498Z,1022.3
2018-05-18T00:29:07.492Z,1022.27
2018-05-18T00:30:07.519Z,1022.26
2018-05-18T00:31:07.521Z,1022.24
2018-05-18T00:32:07.524Z,1022.23
2018-05-18T00:33:07.553Z,1022.26
2018-05-18T00:34:07.516Z,1022.2
2018-05-18T00:35:07.497Z,1022.23
2018-05-18T00:36:07.491Z,1022.18
2018-05-18T00:37:07.522Z,1022.21
2018-05-18T00:38:07.512Z,1022.22
2018-05-18T00:39:07.520Z,1022.21
2018-05-18T00:40:07.488Z,1022.22
2018-05-18T00:41:07.517Z,1022.23
2018-05-18T00:42:07.507Z,1022.25
2018-05-18T00:43:07.504Z,1022.22
2018-05-18T00:44:07.547Z,1022.24
2018-05-18T00:45:07.510Z,1022.29
2018-05-18T00:46:07.674Z,1022.25
2018-05-18T00:47:07.548Z,1022.25
2018-05-18T00:48:07.547Z,1022.27
2018-05-18T00:49:07.513Z,1022.25
2018-05-18T00:50:07.524Z,1022.24
2018-05-18T00:51:07.546Z,1022.25
2018-05-18T00:52:07.539Z,1022.24
2018-05-18T00:53:07.525Z,1022.26
2018-05-18T00:54:07.519Z,1022.28
2018-05-18T00:55:07.542Z,1022.26
2018-05-18T00:56:07.499Z,1022.22
2018-05-18T00:57:07.536Z,1022.27
2018-05-18T00:58:07.509Z,1022.27
2018-05-18T00:59:07.498Z,1022.29
2018-05-18T01:00:07.611Z,1022.29
2018-05-18T01:01:07.569Z,1022.26
2018-05-18T01:02:07.557Z,1022.24
2018-05-18T01:03:07.663Z,1022.24
2018-05-18T01:04:07.555Z,1022.3
2018-05-18T01:05:07.551Z,1022.25
2018-05-18T01:06:07.529Z,1022.28
2018-05-18T01:07:07.524Z,1022.27
2018-05-18T01:08:07.541Z,1022.26
2018-05-18T01:09:07.557Z,1022.26
2018-05-18T01:10:07.546Z,1022.24
2018-05-18T01:11:07.520Z,1022.24
2018-05-18T01:12:07.542Z,1022.24
2018-05-18T01:13:07.529Z,1022.24
2018-05-18T01:14:07.517Z,1022.24
2018-05-18T01:15:08.087Z,1022.26
2018-05-18T01:16:07.590Z,1022.28
2018-05-18T01:17:07.515Z,1022.28
2018-05-18T01:18:07.601Z,1022.26
2018-05-18T01:19:07.676Z,1022.28
2018-05-18T01:20:07.542Z,1022.28
2018-05-18T01:21:07.532Z,1022.33
2018-05-18T01:22:07.567Z,1022.36
2018-05-18T01:23:07.565Z,1022.31
2018-05-18T01:24:07.541Z,1022.34
2018-05-18T01:25:07.543Z,1022.32
2018-05-18T01:26:07.573Z,1022.32
2018-05-18T01:27:07.547Z,1022.31
2018-05-18T01:28:07.563Z,1022.34
2018-05-18T01:29:07.560Z,1022.33
2018-05-18T01:30:07.532Z,1022.4
2018-05-18T01:31:07.546Z,1022.41
2018-05-18T01:32:07.550Z,1022.42
2018-05-18T01:33:07.893Z,1022.42
2018-05-18T01:34:07.552Z,1022.43
2018-05-18T01:35:07.561Z,1022.43
2018-05-18T01:36:07.568Z,1022.45
2018-05-18T01:37:07.544Z,1022.43
2018-05-18T01:38:07.544Z,1022.41
2018-05-18T01:39:07.529Z,1022.39
2018-05-18T01:40:07.543Z,1022.38
2018-05-18T01:41:07.660Z,1022.37
2018-05-18T01:42:07.532Z,1022.38
2018-05-18T01:43:07.574Z,1022.4
2018-05-18T01:44:07.526Z,1022.34
2018-05-18T01:45:07.523Z,1022.35
2018-05-18T01:46:07.527Z,1022.36
2018-05-18T01:47:07.554Z,1022.34
2018-05-18T01:48:07.536Z,1022.37
2018-05-18T01:49:07.546Z,1022.31
2018-05-18T01:50:07.568Z,1022.38
2018-05-18T01:51:07.932Z,1022.37
2018-05-18T01:52:07.532Z,1022.37
2018-05-18T01:53:07.560Z,1022.35
2018-05-18T01:54:07.567Z,1022.36
2018-05-18T01:55:07.537Z,1022.39
2018-05-18T01:56:07.555Z,1022.36
2018-05-18T01:57:07.566Z,1022.38
2018-05-18T01:58:07.565Z,1022.4
2018-05-18T01:59:07.563Z,1022.35
2018-05-18T02:00:07.552Z,1022.38
2018-05-18T02:01:07.885Z,1022.39
2018-05-18T02:02:07.519Z,1022.39
2018-05-18T02:03:07.520Z,1022.39
2018-05-18T02:04:07.545Z,1022.43
2018-05-18T02:05:07.674Z,1022.44
2018-05-18T02:06:07.548Z,1022.44
2018-05-18T02:07:07.544Z,1022.46
2018-05-18T02:08:07.567Z,1022.49
2018-05-18T02:09:07.530Z,1022.5
2018-05-18T02:10:07.537Z,1022.47
2018-05-18T02:11:07.565Z,1022.54
2018-05-18T02:12:07.566Z,1022.52
2018-05-18T02:13:07.586Z,1022.53
2018-05-18T02:14:07.605Z,1022.54
2018-05-18T02:15:07.523Z,1022.49
2018-05-18T02:16:07.537Z,1022.52
2018-05-18T02:17:07.544Z,1022.5
2018-05-18T02:18:07.528Z,1022.54
2018-05-18T02:19:07.557Z,1022.54
2018-05-18T02:20:07.527Z,1022.56
2018-05-18T02:21:07.547Z,1022.57
2018-05-18T02:22:07.708Z,1022.53
2018-05-18T02:23:07.730Z,1022.49
2018-05-18T02:24:07.550Z,1022.48
2018-05-18T02:25:07.701Z,1022.49
2018-05-18T02:26:07.554Z,1022.48
2018-05-18T02:27:07.543Z,1022.48
2018-05-18T02:28:07.557Z,1022.52
2018-05-18T02:29:07.551Z,1022.53
2018-05-18T02:30:07.535Z,1022.53
2018-05-18T02:31:07.541Z,1022.57
2018-05-18T02:32:07.552Z,1022.55
2018-05-18T02:33:07.547Z,1022.55
2018-05-18T02:34:07.568Z,1022.54
2018-05-18T02:35:07.553Z,1022.57
2018-05-18T02:36:07.544Z,1022.57
2018-05-18T02:37:07.558Z,1022.58
2018-05-18T02:38:07.537Z,1022.59
2018-05-18T02:39:07.572Z,1022.62
2018-05-18T02:40:07.549Z,1022.61
2018-05-18T02:41:07.570Z,1022.59
2018-05-18T02:42:07.578Z,1022.62
2018-05-18T02:43:07.548Z,1022.6
2018-05-18T02:44:07.538Z,1022.59
2018-05-18T02:45:07.547Z,1022.57
2018-05-18T02:46:07.582Z,1022.57
2018-05-18T02:47:07.657Z,1022.58
2018-05-18T02:48:07.691Z,1022.6
2018-05-18T02:49:07.669Z,1022.56
2018-05-18T02:50:07.554Z,1022.53
2018-05-18T02:51:07.546Z,1022.53
2018-05-18T02:52:07.560Z,1022.54
2018-05-18T02:53:07.558Z,1022.51
2018-05-18T02:54:07.563Z,1022.53
2018-05-18T02:55:07.564Z,1022.5
2018-05-18T02:56:07.747Z,1022.51
2018-05-18T02:57:07.748Z,1022.53
2018-05-18T02:58:07.579Z,1022.52
2018-05-18T02:59:07.630Z,1022.52
2018-05-18T03:00:07.583Z,1022.56
2018-05-18T03:01:07.569Z,1022.53
2018-05-18T03:02:07.577Z,1022.5
2018-05-18T03:03:07.591Z,1022.5
2018-05-18T03:04:07.560Z,1022.52
2018-05-18T03:05:07.745Z,1022.52
2018-05-18T03:06:07.648Z,1022.52
2018-05-18T03:07:07.608Z,1022.49
2018-05-18T03:08:07.599Z,1022.54
2018-05-18T03:09:07.586Z,1022.52
2018-05-18T03:10:07.616Z,1022.53
2018-05-18T03:11:07.581Z,1022.53
2018-05-18T03:12:07.589Z,1022.54
2018-05-18T03:13:07.742Z,1022.56
2018-05-18T03:14:07.602Z,1022.53
2018-05-18T03:15:07.692Z,1022.53
2018-05-18T03:16:07.658Z,1022.52
2018-05-18T03:17:07.733Z,1022.55
2018-05-18T03:18:07.711Z,1022.55
2018-05-18T03:19:07.589Z,1022.58
2018-05-18T03:20:07.647Z,1022.55
2018-05-18T03:21:07.813Z,1022.57
2018-05-18T03:22:07.566Z,1022.58
2018-05-18T03:23:07.621Z,1022.56
2018-05-18T03:24:07.581Z,1022.56
2018-05-18T03:25:07.568Z,1022.55
2018-05-18T03:26:07.601Z,1022.56
2018-05-18T03:27:07.583Z,1022.57
2018-05-18T03:28:07.711Z,1022.56
2018-05-18T03:29:07.580Z,1022.54
2018-05-18T03:30:07.590Z,1022.57
2018-05-18T03:31:07.608Z,1022.57
2018-05-18T03:32:07.573Z,1022.59
2018-05-18T03:33:07.583Z,1022.61
2018-05-18T03:34:07.590Z,1022.63
2018-05-18T03:35:07.588Z,1022.58
2018-05-18T03:36:07.602Z,1022.58
2018-05-18T03:37:07.564Z,1022.63
2018-05-18T03:38:07.601Z,1022.63
2018-05-18T03:39:07.564Z,1022.61
2018-05-18T03:40:07.587Z,1022.6
2018-05-18T03:41:07.603Z,1022.63
2018-05-18T03:42:07.586Z,1022.64
2018-05-18T03:43:07.585Z,1022.67
2018-05-18T03:44:07.629Z,1022.7
2018-05-18T03:45:07.596Z,1022.73
2018-05-18T03:46:07.573Z,1022.75
2018-05-18T03:47:07.578Z,1022.72
2018-05-18T03:48:07.572Z,1022.78
2018-05-18T03:49:07.566Z,1022.76
2018-05-18T03:50:07.573Z,1022.75
2018-05-18T03:51:07.580Z,1022.75
2018-05-18T03:52:07.572Z,1022.77
2018-05-18T03:53:07.575Z,1022.76
2018-05-18T03:54:07.582Z,1022.81
2018-05-18T03:55:07.579Z,1022.82
2018-05-18T03:56:07.691Z,1022.78
2018-05-18T03:57:07.578Z,1022.82
2018-05-18T03:58:07.605Z,1022.79
2018-05-18T03:59:07.610Z,1022.83
2018-05-18T04:00:07.625Z,1022.83
2018-05-18T04:01:07.587Z,1022.8
2018-05-18T04:02:07.603Z,1022.83
2018-05-18T04:03:07.570Z,1022.81
2018-05-18T04:04:07.585Z,1022.83
2018-05-18T04:05:07.732Z,1022.86
2018-05-18T04:06:07.629Z,1022.86
2018-05-18T04:07:07.615Z,1022.88
2018-05-18T04:08:07.599Z,1022.89
2018-05-18T04:09:07.702Z,1022.9
2018-05-18T04:10:07.626Z,1022.92
2018-05-18T04:11:07.594Z,1022.94
2018-05-18T04:12:07.639Z,1022.94
2018-05-18T04:13:07.594Z,1022.95
2018-05-18T04:14:07.584Z,1022.98
2018-05-18T04:15:07.730Z,1022.96
2018-05-18T04:16:07.633Z,1022.96
2018-05-18T04:17:07.918Z,1022.96
2018-05-18T04:18:07.596Z,1022.95
2018-05-18T04:19:07.624Z,1022.96
2018-05-18T04:20:07.598Z,1022.95
2018-05-18T04:21:07.580Z,1022.99
2018-05-18T04:22:07.613Z,1022.98
2018-05-18T04:23:07.619Z,1023.01
2018-05-18T04:24:07.594Z,1022.98
2018-05-18T04:25:07.620Z,1023.01
2018-05-18T04:26:07.627Z,1022.98
2018-05-18T04:27:07.596Z,1023
2018-05-18T04:28:07.606Z,1022.99
2018-05-18T04:29:07.602Z,1022.99
2018-05-18T04:30:07.921Z,1022.96
2018-05-18T04:31:07.613Z,1022.97
2018-05-18T04:32:07.658Z,1022.96
2018-05-18T04:33:07.630Z,1022.97
2018-05-18T04:34:07.587Z,1022.95
2018-05-18T04:35:07.576Z,1022.94
2018-05-18T04:36:07.742Z,1022.96
2018-05-18T04:37:07.597Z,1022.93
2018-05-18T04:38:07.843Z,1022.92
2018-05-18T04:39:07.587Z,1022.92
2018-05-18T04:40:07.624Z,1022.94
2018-05-18T04:41:07.598Z,1022.94
2018-05-18T04:42:07.644Z,1022.96
2018-05-18T04:43:07.876Z,1023
2018-05-18T04:44:07.686Z,1022.98
2018-05-18T04:45:07.602Z,1023
2018-05-18T04:46:07.623Z,1023.01
2018-05-18T04:47:07.695Z,1023
2018-05-18T04:48:07.883Z,1023.03
2018-05-18T04:49:07.636Z,1023.02
2018-05-18T04:50:07.589Z,1023.01
2018-05-18T04:51:07.596Z,1023
2018-05-18T04:52:07.642Z,1023
2018-05-18T04:53:07.663Z,1022.97
2018-05-18T04:54:07.614Z,1023.02
2018-05-18T04:55:07.623Z,1023.03
2018-05-18T04:56:07.672Z,1023.04
2018-05-18T04:57:07.601Z,1023.08
2018-05-18T04:58:07.712Z,1023.06
2018-05-18T04:59:07.885Z,1023.1
2018-05-18T05:00:07.611Z,1023.06
2018-05-18T05:01:07.634Z,1023.09
2018-05-18T05:02:07.624Z,1023.12
2018-05-18T05:03:07.623Z,1023.08
2018-05-18T05:04:07.633Z,1023.04
2018-05-18T05:05:07.604Z,1023.08
2018-05-18T05:06:07.596Z,1023.1
2018-05-18T05:07:07.770Z,1023.06
2018-05-18T05:08:07.609Z,1023.1
2018-05-18T05:09:07.623Z,1023.08
2018-05-18T05:10:07.612Z,1023.07
2018-05-18T05:11:07.651Z,1023.09
2018-05-18T05:12:07.608Z,1023.08
2018-05-18T05:13:07.612Z,1023.09
2018-05-18T05:14:07.638Z,1023.07
2018-05-18T05:15:07.629Z,1023.08
2018-05-18T05:16:07.633Z,1023.06
2018-05-18T05:17:07.644Z,1023.09
2018-05-18T05:18:07.731Z,1023.1
2018-05-18T05:19:07.618Z,1023.09
2018-05-18T05:20:07.721Z,1023.05
2018-05-18T05:21:07.617Z,1023.11
2018-05-18T05:22:08.046Z,1023.1
2018-05-18T05:23:07.652Z,1023.13
2018-05-18T05:24:07.613Z,1023.17
2018-05-18T05:25:08.494Z,1023.16
2018-05-18T05:26:07.600Z,1023.17
2018-05-18T05:27:07.985Z,1023.16
2018-05-18T05:28:07.718Z,1023.17
2018-05-18T05:29:07.612Z,1023.16
2018-05-18T05:30:07.627Z,1023.18
2018-05-18T05:31:07.634Z,1023.18
2018-05-18T05:32:07.621Z,1023.18
2018-05-18T05:33:07.631Z,1023.2
2018-05-18T05:34:07.646Z,1023.16
2018-05-18T05:35:07.634Z,1023.17
2018-05-18T05:36:07.651Z,1023.18
2018-05-18T05:37:07.627Z,1023.17
2018-05-18T05:38:07.754Z,1023.16
2018-05-18T05:39:07.671Z,1023.19
2018-05-18T05:40:07.861Z,1023.2
2018-05-18T05:41:07.689Z,1023.22
2018-05-18T05:42:07.634Z,1023.23
2018-05-18T05:43:07.669Z,1023.2
2018-05-18T05:44:08.198Z,1023.23
2018-05-18T05:45:07.645Z,1023.26
2018-05-18T05:46:07.662Z,1023.22
2018-05-18T05:47:07.640Z,1023.23
2018-05-18T05:48:07.631Z,1023.24
2018-05-18T05:49:07.678Z,1023.25
2018-05-18T05:50:07.621Z,1023.26
2018-05-18T05:51:07.646Z,1023.25
2018-05-18T05:52:07.638Z,1023.27
2018-05-18T05:53:07.665Z,1023.27
2018-05-18T05:54:07.662Z,1023.3
2018-05-18T05:55:07.613Z,1023.27
2018-05-18T05:56:07.669Z,1023.32
2018-05-18T05:57:07.626Z,1023.27
2018-05-18T05:58:07.669Z,1023.27
2018-05-18T05:59:07.725Z,1023.33
2018-05-18T06:00:07.647Z,1023.3
2018-05-18T06:01:07.659Z,1023.32
2018-05-18T06:02:07.638Z,1023.32
2018-05-18T06:03:07.655Z,1023.27
2018-05-18T06:04:07.662Z,1023.33
2018-05-18T06:05:07.633Z,1023.34
2018-05-18T06:06:07.646Z,1023.34
2018-05-18T06:07:07.640Z,1023.34
2018-05-18T06:08:07.635Z,1023.33
2018-05-18T06:09:07.654Z,1023.35
2018-05-18T06:10:07.663Z,1023.32
2018-05-18T06:11:07.633Z,1023.33
2018-05-18T06:12:07.652Z,1023.28
2018-05-18T06:13:07.684Z,1023.29
2018-05-18T06:14:07.679Z,1023.28
2018-05-18T06:15:07.657Z,1023.3
2018-05-18T06:16:07.669Z,1023.35
2018-05-18T06:17:07.671Z,1023.32
2018-05-18T06:18:07.709Z,1023.33
2018-05-18T06:19:07.689Z,1023.31
2018-05-18T06:20:07.690Z,1023.3
2018-05-18T06:21:07.666Z,1023.3
2018-05-18T06:22:07.662Z,1023.34
2018-05-18T06:23:07.640Z,1023.33
2018-05-18T06:24:07.656Z,1023.34
2018-05-18T06:25:07.644Z,1023.34
2018-05-18T06:26:07.722Z,1023.29
2018-05-18T06:27:07.652Z,1023.34
2018-05-18T06:28:07.670Z,1023.34
2018-05-18T06:29:07.692Z,1023.34
2018-05-18T06:30:07.644Z,1023.31
2018-05-18T06:31:07.674Z,1023.33
2018-05-18T06:32:07.651Z,1023.36
2018-05-18T06:33:07.647Z,1023.34
2018-05-18T06:34:07.652Z,1023.31
2018-05-18T06:35:07.985Z,1023.36
2018-05-18T06:36:07.656Z,1023.33
2018-05-18T06:37:07.664Z,1023.3
2018-05-18T06:38:07.690Z,1023.34
2018-05-18T06:39:07.735Z,1023.32
2018-05-18T06:40:07.768Z,1023.37
2018-05-18T06:41:07.757Z,1023.38
2018-05-18T06:42:07.659Z,1023.42
2018-05-18T06:43:07.643Z,1023.41
2018-05-18T06:44:07.670Z,1023.4
2018-05-18T06:45:07.735Z,1023.43
2018-05-18T06:46:07.651Z,1023.42
2018-05-18T06:47:07.670Z,1023.46
2018-05-18T06:48:07.725Z,1023.43
2018-05-18T06:49:07.682Z,1023.43
2018-05-18T06:50:07.702Z,1023.41
2018-05-18T06:51:07.674Z,1023.4
2018-05-18T06:52:07.660Z,1023.41
2018-05-18T06:53:07.834Z,1023.39
2018-05-18T06:54:07.770Z,1023.4
2018-05-18T06:55:07.926Z,1023.43
2018-05-18T06:56:07.680Z,1023.38
2018-05-18T06:57:07.672Z,1023.42
2018-05-18T06:58:07.653Z,1023.42
2018-05-18T06:59:07.799Z,1023.43
2018-05-18T07:00:07.662Z,1023.44
2018-05-18T07:01:07.682Z,1023.45
2018-05-18T07:02:07.667Z,1023.44
2018-05-18T07:03:07.663Z,1023.43
2018-05-18T07:04:07.840Z,1023.4
2018-05-18T07:05:07.659Z,1023.44
2018-05-18T07:06:07.668Z,1023.41
2018-05-18T07:07:07.670Z,1023.42
2018-05-18T07:08:07.657Z,1023.43
2018-05-18T07:09:07.666Z,1023.38
2018-05-18T07:10:07.667Z,1023.4
2018-05-18T07:11:07.674Z,1023.39
2018-05-18T07:12:07.673Z,1023.35
2018-05-18T07:13:07.688Z,1023.41
2018-05-18T07:14:07.697Z,1023.38
2018-05-18T07:15:07.914Z,1023.39
2018-05-18T07:16:07.679Z,1023.37
2018-05-18T07:17:07.776Z,1023.37
2018-05-18T07:18:07.672Z,1023.38
2018-05-18T07:19:07.685Z,1023.38
2018-05-18T07:20:07.668Z,1023.39
2018-05-18T07:21:07.704Z,1023.36
2018-05-18T07:22:07.657Z,1023.38
2018-05-18T07:23:08.031Z,1023.42
2018-05-18T07:24:07.708Z,1023.41
2018-05-18T07:25:07.681Z,1023.38
2018-05-18T07:26:07.829Z,1023.43
2018-05-18T07:27:07.732Z,1023.42
2018-05-18T07:28:07.701Z,1023.45
2018-05-18T07:29:07.797Z,1023.39
2018-05-18T07:30:07.897Z,1023.4
2018-05-18T07:31:07.724Z,1023.43
2018-05-18T07:32:07.673Z,1023.44
2018-05-18T07:33:07.699Z,1023.44
2018-05-18T07:34:07.738Z,1023.46
2018-05-18T07:35:07.688Z,1023.41
2018-05-18T07:36:07.860Z,1023.38
2018-05-18T07:37:07.783Z,1023.39
2018-05-18T07:38:07.698Z,1023.43
2018-05-18T07:39:07.682Z,1023.4
2018-05-18T07:40:07.827Z,1023.41
2018-05-18T07:41:07.695Z,1023.41
2018-05-18T07:42:07.677Z,1023.42
2018-05-18T07:43:07.697Z,1023.43
2018-05-18T07:44:07.669Z,1023.39
2018-05-18T07:45:07.812Z,1023.4
2018-05-18T07:46:07.716Z,1023.38
2018-05-18T07:47:07.693Z,1023.32
2018-05-18T07:48:07.795Z,1023.37
2018-05-18T07:49:07.682Z,1023.37
2018-05-18T07:50:07.784Z,1023.34
2018-05-18T07:51:07.707Z,1023.33
2018-05-18T07:52:07.684Z,1023.35
2018-05-18T07:53:07.701Z,1023.37
2018-05-18T07:54:07.678Z,1023.32
2018-05-18T07:55:07.678Z,1023.38
2018-05-18T07:56:07.688Z,1023.36
2018-05-18T07:57:07.691Z,1023.37
2018-05-18T07:58:07.702Z,1023.37
2018-05-18T07:59:07.696Z,1023.4
2018-05-18T08:00:07.715Z,1023.37
2018-05-18T08:01:07.688Z,1023.38
2018-05-18T08:02:07.700Z,1023.38
2018-05-18T08:03:07.680Z,1023.35
2018-05-18T08:04:07.683Z,1023.31
2018-05-18T08:05:07.692Z,1023.35
2018-05-18T08:06:07.687Z,1023.38
2018-05-18T08:07:07.683Z,1023.33
2018-05-18T08:08:07.700Z,1023.34
2018-05-18T08:09:07.769Z,1023.3
2018-05-18T08:10:07.688Z,1023.31
2018-05-18T08:11:07.688Z,1023.31
2018-05-18T08:12:07.699Z,1023.28
2018-05-18T08:13:07.696Z,1023.32
2018-05-18T08:14:07.744Z,1023.29
2018-05-18T08:15:07.710Z,1023.31
2018-05-18T08:16:07.715Z,1023.33
2018-05-18T08:17:07.693Z,1023.34
2018-05-18T08:18:07.681Z,1023.3
2018-05-18T08:19:07.708Z,1023.33
2018-05-18T08:20:07.748Z,1023.31
2018-05-18T08:21:07.700Z,1023.34
2018-05-18T08:22:07.707Z,1023.31
2018-05-18T08:23:07.714Z,1023.32
2018-05-18T08:24:07.720Z,1023.25
2018-05-18T08:25:07.718Z,1023.32
2018-05-18T08:26:07.681Z,1023.3
2018-05-18T08:27:07.875Z,1023.27
2018-05-18T08:28:07.707Z,1023.26
2018-05-18T08:29:07.834Z,1023.28
2018-05-18T08:30:07.704Z,1023.28
2018-05-18T08:31:07.881Z,1023.26
2018-05-18T08:32:07.904Z,1023.27
2018-05-18T08:33:07.744Z,1023.24
2018-05-18T08:34:07.737Z,1023.27
2018-05-18T08:35:07.717Z,1023.28
2018-05-18T08:36:07.726Z,1023.28
2018-05-18T08:37:07.714Z,1023.22
2018-05-18T08:38:07.795Z,1023.23
2018-05-18T08:39:07.844Z,1023.27
2018-05-18T08:40:07.779Z,1023.2
2018-05-18T08:41:07.684Z,1023.25
2018-05-18T08:42:07.731Z,1023.29
2018-05-18T08:43:07.699Z,1023.25
2018-05-18T08:44:07.707Z,1023.26
2018-05-18T08:45:08.113Z,1023.24
2018-05-18T08:46:07.776Z,1023.21
2018-05-18T08:47:07.728Z,1023.23
2018-05-18T08:48:07.707Z,1023.27
2018-05-18T08:49:07.892Z,1023.28
2018-05-18T08:50:07.719Z,1023.29
2018-05-18T08:51:07.709Z,1023.31
2018-05-18T08:52:07.939Z,1023.29
2018-05-18T08:53:07.720Z,1023.3
2018-05-18T08:54:07.870Z,1023.3
2018-05-18T08:55:07.751Z,1023.32
2018-05-18T08:56:07.767Z,1023.32
2018-05-18T08:57:08.491Z,1023.31
2018-05-18T08:58:07.741Z,1023.29
2018-05-18T08:59:07.701Z,1023.33
2018-05-18T09:00:07.730Z,1023.31
2018-05-18T09:01:07.715Z,1023.23
2018-05-18T09:02:07.735Z,1023.26
2018-05-18T09:03:07.716Z,1023.27
2018-05-18T09:04:07.720Z,1023.23
2018-05-18T09:05:07.717Z,1023.24
2018-05-18T09:06:07.711Z,1023.23
2018-05-18T09:07:07.713Z,1023.25
2018-05-18T09:08:07.716Z,1023.22
2018-05-18T09:09:07.779Z,1023.27
2018-05-18T09:10:07.721Z,1023.25
2018-05-18T09:11:07.768Z,1023.24
2018-05-18T09:12:07.706Z,1023.23
2018-05-18T09:13:07.714Z,1023.27
2018-05-18T09:14:07.720Z,1023.26
2018-05-18T09:15:07.741Z,1023.25
2018-05-18T09:16:07.710Z,1023.19
2018-05-18T09:17:07.707Z,1023.25
2018-05-18T09:18:07.720Z,1023.23
2018-05-18T09:19:07.744Z,1023.25
2018-05-18T09:20:07.742Z,1023.23
2018-05-18T09:21:07.781Z,1023.23
2018-05-18T09:22:07.753Z,1023.26
2018-05-18T09:23:07.753Z,1023.24
2018-05-18T09:24:07.762Z,1023.2
2018-05-18T09:25:07.756Z,1023.21
2018-05-18T09:26:07.728Z,1023.2
2018-05-18T09:27:07.741Z,1023.18
2018-05-18T09:28:07.720Z,1023.22
2018-05-18T09:29:07.715Z,1023.23
2018-05-18T09:30:07.734Z,1023.23
2018-05-18T09:31:07.739Z,1023.19
2018-05-18T09:32:07.714Z,1023.17
2018-05-18T09:33:07.732Z,1023.16
2018-05-18T09:34:07.828Z,1023.17
2018-05-18T09:35:07.742Z,1023.17
2018-05-18T09:36:07.769Z,1023.14
2018-05-18T09:37:07.737Z,1023.11
2018-05-18T09:38:07.754Z,1023.16
2018-05-18T09:39:07.912Z,1023.18
2018-05-18T09:40:07.757Z,1023.13
2018-05-18T09:41:07.732Z,1023.17
2018-05-18T09:42:07.752Z,1023.11
2018-05-18T09:43:07.780Z,1023.13
2018-05-18T09:44:07.742Z,1023.16
2018-05-18T09:45:07.971Z,1023.12
2018-05-18T09:46:07.812Z,1023.09
2018-05-18T09:47:07.746Z,1023.1
2018-05-18T09:48:08.655Z,1023.03
2018-05-18T09:49:07.761Z,1023.04
2018-05-18T09:50:07.794Z,1023.05
2018-05-18T09:51:07.749Z,1023.11
2018-05-18T09:52:08.536Z,1023.09
2018-05-18T09:53:08.170Z,1023.05
2018-05-18T09:54:08.581Z,1023.07
2018-05-18T09:55:09.096Z,1023.03
2018-05-18T09:56:07.815Z,1023.07
2018-05-18T09:57:07.755Z,1023.09
2018-05-18T09:58:07.923Z,1023.1
2018-05-18T09:59:07.935Z,1023.06
2018-05-18T10:00:07.779Z,1023.06
2018-05-18T10:01:07.745Z,1023.08
2018-05-18T10:02:07.755Z,1023.1
2018-05-18T10:03:07.755Z,1023.08
2018-05-18T10:04:07.743Z,1023.13
2018-05-18T10:05:07.771Z,1023.12
2018-05-18T10:06:07.757Z,1023.14
2018-05-18T10:07:07.760Z,1023.1
2018-05-18T10:08:07.764Z,1023.1
2018-05-18T10:09:07.958Z,1023.13
2018-05-18T10:10:07.911Z,1023.13
2018-05-18T10:11:07.763Z,1023.1
2018-05-18T10:12:07.979Z,1023.14
2018-05-18T10:13:07.785Z,1023.12
2018-05-18T10:14:07.767Z,1023.13
2018-05-18T10:15:07.898Z,1023.12
2018-05-18T10:16:07.746Z,1023.1
2018-05-18T10:17:07.761Z,1023.14
2018-05-18T10:18:07.753Z,1023.08
2018-05-18T10:19:07.775Z,1023.1
2018-05-18T10:20:07.756Z,1023.08
2018-05-18T10:21:07.762Z,1023.07
2018-05-18T10:22:07.796Z,1023.09
2018-05-18T10:23:07.772Z,1023.14
2018-05-18T10:24:07.795Z,1023
2018-05-18T10:25:07.743Z,1023.04
2018-05-18T10:26:07.764Z,1023.06
2018-05-18T10:27:07.833Z,1023.04
2018-05-18T10:28:07.780Z,1023.01
2018-05-18T10:29:07.775Z,1023.02
2018-05-18T10:30:07.750Z,1023
2018-05-18T10:31:07.748Z,1023
2018-05-18T10:32:07.761Z,1022.98
2018-05-18T10:33:07.757Z,1022.95
2018-05-18T10:34:07.749Z,1022.95
2018-05-18T10:35:07.768Z,1022.96
2018-05-18T10:36:07.757Z,1022.95
2018-05-18T10:37:07.773Z,1022.97
2018-05-18T10:38:08.035Z,1022.96
2018-05-18T10:39:07.755Z,1022.92
2018-05-18T10:40:07.783Z,1022.94
2018-05-18T10:41:07.785Z,1022.95
2018-05-18T10:42:07.786Z,1022.94
2018-05-18T10:43:07.790Z,1022.93
2018-05-18T10:44:07.786Z,1022.93
2018-05-18T10:45:07.782Z,1022.88
2018-05-18T10:46:07.788Z,1022.88
2018-05-18T10:47:08.422Z,1022.9
2018-05-18T10:48:07.774Z,1022.9
2018-05-18T10:49:08.536Z,1022.84
2018-05-18T10:50:07.784Z,1022.84
2018-05-18T10:51:07.786Z,1022.84
2018-05-18T10:52:07.807Z,1022.83
2018-05-18T10:53:08.075Z,1022.82
2018-05-18T10:54:07.838Z,1022.79
2018-05-18T10:55:07.874Z,1022.81
2018-05-18T10:56:07.793Z,1022.77
2018-05-18T10:57:08.037Z,1022.8
2018-05-18T10:58:07.802Z,1022.79
2018-05-18T10:59:08.507Z,1022.85
2018-05-18T11:00:08.520Z,1022.75
2018-05-18T11:01:08.805Z,1022.77
2018-05-18T11:02:08.429Z,1022.71
2018-05-18T11:03:08.954Z,1022.71
2018-05-18T11:04:08.592Z,1022.75
2018-05-18T11:05:08.823Z,1022.71
2018-05-18T11:06:08.095Z,1022.69
2018-05-18T11:07:07.776Z,1022.69
2018-05-18T11:08:07.782Z,1022.64
2018-05-18T11:09:07.863Z,1022.66
2018-05-18T11:10:07.779Z,1022.69
2018-05-18T11:11:07.786Z,1022.65
2018-05-18T11:12:07.817Z,1022.67
2018-05-18T11:13:07.785Z,1022.6
2018-05-18T11:14:08.064Z,1022.56
2018-05-18T11:15:07.857Z,1022.57
2018-05-18T11:16:07.784Z,1022.57
2018-05-18T11:17:07.792Z,1022.54
2018-05-18T11:18:07.797Z,1022.55
2018-05-18T11:19:07.828Z,1022.53
2018-05-18T11:20:08.010Z,1022.55
2018-05-18T11:21:07.843Z,1022.5
2018-05-18T11:22:07.785Z,1022.5
2018-05-18T11:23:07.804Z,1022.51
2018-05-18T11:24:07.941Z,1022.47
2018-05-18T11:25:07.895Z,1022.49
2018-05-18T11:26:07.827Z,1022.47
2018-05-18T11:27:07.809Z,1022.49
2018-05-18T11:28:07.834Z,1022.5
2018-05-18T11:29:07.809Z,1022.54
2018-05-18T11:30:07.799Z,1022.54
2018-05-18T11:31:07.827Z,1022.57
2018-05-18T11:32:07.813Z,1022.47
2018-05-18T11:33:07.917Z,1022.49
2018-05-18T11:34:07.784Z,1022.42
2018-05-18T11:35:07.792Z,1022.4
2018-05-18T11:36:07.776Z,1022.43
2018-05-18T11:37:07.781Z,1022.51
2018-05-18T11:38:07.794Z,1022.45
2018-05-18T11:39:07.915Z,1022.42
2018-05-18T11:40:07.795Z,1022.4
2018-05-18T11:41:07.884Z,1022.39
2018-05-18T11:42:07.837Z,1022.39
2018-05-18T11:43:07.811Z,1022.41
2018-05-18T11:44:07.809Z,1022.4
2018-05-18T11:45:07.846Z,1022.39
2018-05-18T11:46:07.825Z,1022.32
2018-05-18T11:47:07.793Z,1022.29
2018-05-18T11:48:08.040Z,1022.33
2018-05-18T11:49:07.877Z,1022.3
2018-05-18T11:50:08.026Z,1022.31
2018-05-18T11:51:07.838Z,1022.3
2018-05-18T11:52:07.779Z,1022.35
2018-05-18T11:53:07.820Z,1022.3
2018-05-18T11:54:07.820Z,1022.29
2018-05-18T11:55:07.816Z,1022.31
2018-05-18T11:56:07.856Z,1022.27
2018-05-18T11:57:08.187Z,1022.28
2018-05-18T11:58:07.836Z,1022.24
2018-05-18T11:59:07.811Z,1022.25
2018-05-18T12:00:07.902Z,1022.3
2018-05-18T12:01:07.895Z,1022.27
2018-05-18T12:02:07.832Z,1022.18
2018-05-18T12:03:07.903Z,1022.24
2018-05-18T12:04:07.828Z,1022.19
2018-05-18T12:05:07.854Z,1022.16
2018-05-18T12:06:07.797Z,1022.16
2018-05-18T12:07:07.914Z,1022.21
2018-05-18T12:08:07.956Z,1022.2